createdAt,value
2022-08-29T00:00:18.118Z,1015.94
2022-08-29T00:01:16.914Z,1015.92
2022-08-29T00:02:16.930Z,1015.90
2022-08-29T00:03:16.870Z,1015.92
2022-08-29T00:04:16.894Z,1015.93
2022-08-29T00:05:16.828Z,1015.93
2022-08-29T00:06:16.807Z,1015.93
2022-08-29T00:07:16.786Z,1015.92
2022-08-29T00:08:16.764Z,1015.91
2022-08-29T00:09:16.744Z,1015.92
2022-08-29T00:10:16.720Z,1015.91
2022-08-29T00:11:16.703Z,1015.93
2022-08-29T00:12:16.679Z,1015.92
2022-08-29T00:13:16.664Z,1015.94
2022-08-29T00:14:20.933Z,1015.92
2022-08-29T00:15:16.617Z,1015.97
2022-08-29T00:16:16.664Z,1015.96
2022-08-29T00:17:16.574Z,1015.95
2022-08-29T00:18:16.554Z,1015.94
2022-08-29T00:19:16.537Z,1015.94
2022-08-29T00:20:16.509Z,1015.92
2022-08-29T00:21:16.488Z,1015.93
2022-08-29T00:22:16.464Z,1015.93
2022-08-29T00:23:16.447Z,1015.89
2022-08-29T00:24:16.428Z,1015.90
2022-08-29T00:25:16.406Z,1015.88
2022-08-29T00:26:16.384Z,1015.90
2022-08-29T00:27:16.362Z,1015.97
2022-08-29T00:28:16.525Z,1015.91
2022-08-29T00:29:16.321Z,1015.91
2022-08-29T00:30:16.297Z,1015.92
2022-08-29T00:31:16.327Z,1015.96
2022-08-29T00:32:16.257Z,1015.89
2022-08-29T00:33:16.235Z,1015.90
2022-08-29T00:34:16.212Z,1015.96
2022-08-29T00:35:16.195Z,1015.94
2022-08-29T00:36:16.169Z,1015.98
2022-08-29T00:37:16.149Z,1015.97
2022-08-29T00:38:16.421Z,1016.03
2022-08-29T00:39:16.104Z,1016.06
2022-08-29T00:40:16.197Z,1016.05
2022-08-29T00:41:16.062Z,1016.07
2022-08-29T00:42:16.041Z,1016.07
2022-08-29T00:43:16.021Z,1016.07
2022-08-29T00:44:15.999Z,1016.10
2022-08-29T00:45:15.979Z,1016.07
2022-08-29T00:46:16.026Z,1016.05
2022-08-29T00:47:15.940Z,1016.07
2022-08-29T00:48:16.115Z,1016.06
2022-08-29T00:49:15.893Z,1016.10
2022-08-29T00:50:15.872Z,1016.13
2022-08-29T00:51:15.855Z,1016.09
2022-08-29T00:52:15.827Z,1016.07
2022-08-29T00:53:15.810Z,1016.07
2022-08-29T00:54:15.787Z,1016.05
2022-08-29T00:55:15.765Z,1016.07
2022-08-29T00:56:15.744Z,1016.07
2022-08-29T00:57:15.727Z,1016.07
2022-08-29T00:58:15.796Z,1016.10
2022-08-29T00:59:15.682Z,1016.08
2022-08-29T01:00:15.663Z,1016.09
2022-08-29T01:01:15.743Z,1016.12
2022-08-29T01:02:15.621Z,1016.08
2022-08-29T01:03:15.598Z,1016.06
2022-08-29T01:04:23.555Z,1016.04
2022-08-29T01:05:15.554Z,1016.04
2022-08-29T01:06:15.531Z,1016.04
2022-08-29T01:07:15.510Z,1016.03
2022-08-29T01:08:15.683Z,1016.04
2022-08-29T01:09:15.468Z,1016.06
2022-08-29T01:10:15.449Z,1016.07
2022-08-29T01:11:15.426Z,1016.04
2022-08-29T01:12:15.402Z,1016.04
2022-08-29T01:13:15.387Z,1016.07
2022-08-29T01:14:15.361Z,1016.05
2022-08-29T01:15:15.340Z,1016.05
2022-08-29T01:16:15.387Z,1016.09
2022-08-29T01:17:15.296Z,1016.05
2022-08-29T01:18:15.494Z,1016.08
2022-08-29T01:19:15.252Z,1016.09
2022-08-29T01:20:15.231Z,1016.02
2022-08-29T01:21:15.210Z,1016.05
2022-08-29T01:22:15.190Z,1016.00
2022-08-29T01:23:15.172Z,1016.01
2022-08-29T01:24:15.144Z,1016.03
2022-08-29T01:25:15.125Z,1016.03
2022-08-29T01:26:15.101Z,1016.04
2022-08-29T01:27:15.082Z,1016.04
2022-08-29T01:28:15.241Z,1016.05
2022-08-29T01:29:15.039Z,1016.04
2022-08-29T01:30:15.017Z,1016.07
2022-08-29T01:31:15.035Z,1016.09
2022-08-29T01:32:15.013Z,1016.08
2022-08-29T01:33:14.954Z,1016.06
2022-08-29T01:34:14.929Z,1016.13
2022-08-29T01:35:14.911Z,1016.17
2022-08-29T01:36:14.887Z,1016.13
2022-08-29T01:37:14.872Z,1016.17
2022-08-29T01:38:15.004Z,1016.15
2022-08-29T01:39:14.826Z,1016.13
2022-08-29T01:40:14.867Z,1016.15
2022-08-29T01:41:14.786Z,1016.13
2022-08-29T01:42:14.758Z,1016.13
2022-08-29T01:43:14.739Z,1016.05
2022-08-29T01:44:14.718Z,1016.15
2022-08-29T01:45:14.697Z,1016.07
2022-08-29T01:46:14.675Z,1016.09
2022-08-29T01:47:15.175Z,1016.10
2022-08-29T01:48:14.840Z,1016.13
2022-08-29T01:49:14.611Z,1016.14
2022-08-29T01:50:14.590Z,1016.14
2022-08-29T01:51:14.568Z,1016.14
2022-08-29T01:52:14.545Z,1016.16
2022-08-29T01:53:14.527Z,1016.15
2022-08-29T01:54:14.502Z,1016.13
2022-08-29T01:55:14.482Z,1016.14
2022-08-29T01:56:14.458Z,1016.13
2022-08-29T01:57:14.438Z,1016.13
2022-08-29T01:58:14.558Z,1016.13
2022-08-29T01:59:14.395Z,1016.16
2022-08-29T02:00:14.374Z,1016.12
2022-08-29T02:01:14.402Z,1016.15
2022-08-29T02:02:14.362Z,1016.13
2022-08-29T02:03:14.308Z,1016.11
2022-08-29T02:04:14.288Z,1016.12
2022-08-29T02:05:14.267Z,1016.12
2022-08-29T02:06:14.243Z,1016.11
2022-08-29T02:07:14.227Z,1016.12
2022-08-29T02:08:14.366Z,1016.14
2022-08-29T02:09:14.179Z,1016.16
2022-08-29T02:10:14.157Z,1016.16
2022-08-29T02:11:14.136Z,1016.15
2022-08-29T02:12:14.119Z,1016.14
2022-08-29T02:13:14.093Z,1016.16
2022-08-29T02:14:19.093Z,1016.16
2022-08-29T02:15:14.055Z,1016.16
2022-08-29T02:16:14.067Z,1016.20
2022-08-29T02:17:14.008Z,1016.15
2022-08-29T02:18:14.213Z,1016.16
2022-08-29T02:19:13.965Z,1016.17
2022-08-29T02:20:13.943Z,1016.15
2022-08-29T02:21:13.925Z,1016.17
2022-08-29T02:22:13.898Z,1016.10
2022-08-29T02:23:30.213Z,1016.12
2022-08-29T02:24:25.450Z,1016.13
2022-08-29T02:25:13.836Z,1016.20
2022-08-29T02:26:13.812Z,1016.17
2022-08-29T02:27:13.793Z,1016.20
2022-08-29T02:28:13.934Z,1016.18
2022-08-29T02:29:13.754Z,1016.22
2022-08-29T02:30:13.725Z,1016.22
2022-08-29T02:31:13.824Z,1016.21
2022-08-29T02:32:13.689Z,1016.21
2022-08-29T02:33:13.666Z,1016.21
2022-08-29T02:34:13.638Z,1016.19
2022-08-29T02:35:13.619Z,1016.19
2022-08-29T02:36:13.597Z,1016.19
2022-08-29T02:37:13.581Z,1016.16
2022-08-29T02:38:13.712Z,1016.20
2022-08-29T02:39:13.532Z,1016.19
2022-08-29T02:40:13.560Z,1016.19
2022-08-29T02:41:14.375Z,1016.17
2022-08-29T02:42:13.466Z,1016.18
2022-08-29T02:43:13.463Z,1016.21
2022-08-29T02:44:13.429Z,1016.21
2022-08-29T02:45:13.417Z,1016.23
2022-08-29T02:46:13.425Z,1016.24
2022-08-29T02:47:13.360Z,1016.24
2022-08-29T02:48:13.555Z,1016.27
2022-08-29T02:49:13.319Z,1016.21
2022-08-29T02:50:13.296Z,1016.24
2022-08-29T02:51:13.274Z,1016.28
2022-08-29T02:52:13.252Z,1016.24
2022-08-29T02:53:13.232Z,1016.28
2022-08-29T02:54:13.208Z,1016.30
2022-08-29T02:55:13.188Z,1016.25
2022-08-29T02:56:13.166Z,1016.27
2022-08-29T02:57:13.146Z,1016.28
2022-08-29T02:58:13.306Z,1016.29
2022-08-29T02:59:13.105Z,1016.31
2022-08-29T03:00:13.079Z,1016.31
2022-08-29T03:01:13.107Z,1016.29
2022-08-29T03:02:13.117Z,1016.28
2022-08-29T03:03:13.014Z,1016.31
2022-08-29T03:04:12.991Z,1016.28
2022-08-29T03:05:12.970Z,1016.28
2022-08-29T03:06:12.946Z,1016.27
2022-08-29T03:07:12.925Z,1016.26
2022-08-29T03:08:13.032Z,1016.25
2022-08-29T03:09:12.883Z,1016.26
2022-08-29T03:10:12.860Z,1016.23
2022-08-29T03:11:12.839Z,1016.24
2022-08-29T03:12:12.820Z,1016.21
2022-08-29T03:13:12.804Z,1016.22
2022-08-29T03:14:12.776Z,1016.23
2022-08-29T03:15:12.752Z,1016.15
2022-08-29T03:16:12.778Z,1016.15
2022-08-29T03:17:12.709Z,1016.16
2022-08-29T03:18:12.812Z,1016.16
2022-08-29T03:19:12.665Z,1016.18
2022-08-29T03:20:12.644Z,1016.14
2022-08-29T03:21:12.630Z,1016.14
2022-08-29T03:22:12.601Z,1016.15
2022-08-29T03:23:12.580Z,1016.15
2022-08-29T03:24:12.556Z,1016.18
2022-08-29T03:25:12.536Z,1016.17
2022-08-29T03:26:12.516Z,1016.17
2022-08-29T03:27:12.492Z,1016.19
2022-08-29T03:28:12.469Z,1016.16
2022-08-29T03:29:12.451Z,1016.15
2022-08-29T03:30:12.425Z,1016.15
2022-08-29T03:31:12.481Z,1016.10
2022-08-29T03:32:12.381Z,1016.12
2022-08-29T03:33:12.360Z,1016.12
2022-08-29T03:34:12.338Z,1016.13
2022-08-29T03:35:12.317Z,1016.15
2022-08-29T03:36:14.178Z,1016.19
2022-08-29T03:37:12.278Z,1016.19
2022-08-29T03:38:12.254Z,1016.19
2022-08-29T03:39:12.229Z,1016.21
2022-08-29T03:40:12.249Z,1016.14
2022-08-29T03:41:12.190Z,1016.18
2022-08-29T03:42:12.165Z,1016.17
2022-08-29T03:43:12.143Z,1016.18
2022-08-29T03:44:12.121Z,1016.12
2022-08-29T03:45:12.101Z,1016.11
2022-08-29T03:46:12.128Z,1016.09
2022-08-29T03:47:12.058Z,1016.12
2022-08-29T03:48:12.035Z,1016.10
2022-08-29T03:49:12.012Z,1016.09
2022-08-29T03:50:11.989Z,1016.10
2022-08-29T03:51:11.969Z,1016.14
2022-08-29T03:52:11.945Z,1016.10
2022-08-29T03:53:11.932Z,1016.10
2022-08-29T03:54:11.905Z,1016.10
2022-08-29T03:55:11.882Z,1016.08
2022-08-29T03:56:18.576Z,1016.09
2022-08-29T03:57:11.841Z,1016.08
2022-08-29T03:58:11.813Z,1016.08
2022-08-29T03:59:11.799Z,1016.05
2022-08-29T04:00:11.770Z,1016.13
2022-08-29T04:01:11.749Z,1016.13
2022-08-29T04:02:11.774Z,1016.12
2022-08-29T04:03:11.755Z,1016.13
2022-08-29T04:04:11.685Z,1016.14
2022-08-29T04:05:11.664Z,1016.13
2022-08-29T04:06:11.643Z,1016.10
2022-08-29T04:07:11.618Z,1016.07
2022-08-29T04:08:11.636Z,1016.06
2022-08-29T04:09:11.574Z,1016.08
2022-08-29T04:10:11.552Z,1016.07
2022-08-29T04:11:11.530Z,1016.08
2022-08-29T04:12:11.514Z,1016.06
2022-08-29T04:13:11.488Z,1016.07
2022-08-29T04:14:11.479Z,1016.10
2022-08-29T04:15:11.445Z,1016.08
2022-08-29T04:16:11.475Z,1016.09
2022-08-29T04:17:11.397Z,1016.10
2022-08-29T04:18:11.474Z,1016.09
2022-08-29T04:19:11.352Z,1016.09
2022-08-29T04:20:11.333Z,1016.05
2022-08-29T04:21:11.314Z,1016.06
2022-08-29T04:22:11.288Z,1016.07
2022-08-29T04:23:11.265Z,1016.08
2022-08-29T04:24:11.245Z,1016.10
2022-08-29T04:25:11.227Z,1016.09
2022-08-29T04:26:31.754Z,1016.12
2022-08-29T04:27:11.177Z,1016.10
2022-08-29T04:28:11.158Z,1016.09
2022-08-29T04:29:11.134Z,1016.08
2022-08-29T04:30:11.111Z,1016.09
2022-08-29T04:31:11.121Z,1016.09
2022-08-29T04:32:11.069Z,1016.12
2022-08-29T04:33:16.254Z,1016.11
2022-08-29T04:34:11.024Z,1016.16
2022-08-29T04:35:11.004Z,1016.15
2022-08-29T04:36:14.890Z,1016.20
2022-08-29T04:37:10.962Z,1016.26
2022-08-29T04:38:11.007Z,1016.28
2022-08-29T04:39:10.918Z,1016.25
2022-08-29T04:40:11.021Z,1016.26
2022-08-29T04:41:10.881Z,1016.27
2022-08-29T04:42:10.853Z,1016.28
2022-08-29T04:43:10.828Z,1016.31
2022-08-29T04:44:10.807Z,1016.29
2022-08-29T04:45:10.784Z,1016.33
2022-08-29T04:46:23.517Z,1016.32
2022-08-29T04:47:10.739Z,1016.31
2022-08-29T04:48:10.895Z,1016.34
2022-08-29T04:49:10.695Z,1016.39
2022-08-29T04:50:10.672Z,1016.40
2022-08-29T04:51:10.651Z,1016.36
2022-08-29T04:52:10.629Z,1016.35
2022-08-29T04:53:10.606Z,1016.29
2022-08-29T04:54:10.587Z,1016.30
2022-08-29T04:55:10.560Z,1016.30
2022-08-29T04:56:10.540Z,1016.35
2022-08-29T04:57:10.517Z,1016.34
2022-08-29T04:58:10.496Z,1016.36
2022-08-29T04:59:10.471Z,1016.40
2022-08-29T05:00:10.454Z,1016.33
2022-08-29T05:01:10.467Z,1016.36
2022-08-29T05:02:10.412Z,1016.32
2022-08-29T05:03:10.407Z,1016.34
2022-08-29T05:04:14.420Z,1016.33
2022-08-29T05:05:10.345Z,1016.31
2022-08-29T05:06:10.320Z,1016.35
2022-08-29T05:07:10.300Z,1016.35
2022-08-29T05:08:10.415Z,1016.36
2022-08-29T05:09:10.254Z,1016.39
2022-08-29T05:10:10.231Z,1016.36
2022-08-29T05:11:10.209Z,1016.38
2022-08-29T05:12:10.437Z,1016.36
2022-08-29T05:13:10.165Z,1016.38
2022-08-29T05:14:10.144Z,1016.31
2022-08-29T05:15:10.125Z,1016.35
2022-08-29T05:16:10.160Z,1016.34
2022-08-29T05:17:10.078Z,1016.33
2022-08-29T05:18:10.124Z,1016.35
2022-08-29T05:19:10.032Z,1016.38
2022-08-29T05:20:10.011Z,1016.38
2022-08-29T05:21:09.991Z,1016.38
2022-08-29T05:22:09.968Z,1016.39
2022-08-29T05:23:09.947Z,1016.41
2022-08-29T05:24:09.922Z,1016.38
2022-08-29T05:25:12.355Z,1016.42
2022-08-29T05:26:09.878Z,1016.39
2022-08-29T05:27:09.855Z,1016.39
2022-08-29T05:28:09.838Z,1016.40
2022-08-29T05:29:09.813Z,1016.38
2022-08-29T05:30:09.793Z,1016.42
2022-08-29T05:31:13.504Z,1016.43
2022-08-29T05:32:09.747Z,1016.43
2022-08-29T05:33:09.725Z,1016.47
2022-08-29T05:34:11.198Z,1016.44
2022-08-29T05:35:09.686Z,1016.45
2022-08-29T05:36:09.661Z,1016.43
2022-08-29T05:37:09.638Z,1016.46
2022-08-29T05:38:09.664Z,1016.48
2022-08-29T05:39:09.593Z,1016.47
2022-08-29T05:40:09.654Z,1016.49
2022-08-29T05:41:09.549Z,1016.48
2022-08-29T05:42:09.530Z,1016.51
2022-08-29T05:43:09.507Z,1016.53
2022-08-29T05:44:09.483Z,1016.54
2022-08-29T05:45:09.460Z,1016.51
2022-08-29T05:46:09.495Z,1016.50
2022-08-29T05:47:09.416Z,1016.51
2022-08-29T05:48:09.399Z,1016.56
2022-08-29T05:49:09.377Z,1016.56
2022-08-29T05:50:09.351Z,1016.54
2022-08-29T05:51:09.335Z,1016.60
2022-08-29T05:52:09.308Z,1016.60
2022-08-29T05:53:09.285Z,1016.59
2022-08-29T05:54:09.263Z,1016.63
2022-08-29T05:55:09.241Z,1016.61
2022-08-29T05:56:09.224Z,1016.62
2022-08-29T05:57:09.199Z,1016.62
2022-08-29T05:58:09.180Z,1016.61
2022-08-29T05:59:09.155Z,1016.60
2022-08-29T06:00:09.138Z,1016.61
2022-08-29T06:01:09.120Z,1016.61
2022-08-29T06:02:09.175Z,1016.62
2022-08-29T06:03:09.252Z,1016.62
2022-08-29T06:04:09.156Z,1016.61
2022-08-29T06:05:09.024Z,1016.60
2022-08-29T06:06:09.008Z,1016.61
2022-08-29T06:07:08.984Z,1016.63
2022-08-29T06:08:08.960Z,1016.66
2022-08-29T06:09:08.940Z,1016.65
2022-08-29T06:10:08.922Z,1016.65
2022-08-29T06:11:08.895Z,1016.65
2022-08-29T06:12:08.876Z,1016.69
2022-08-29T06:13:08.853Z,1016.69
2022-08-29T06:14:08.829Z,1016.68
2022-08-29T06:15:08.806Z,1016.66
2022-08-29T06:16:08.838Z,1016.68
2022-08-29T06:17:09.403Z,1016.64
2022-08-29T06:18:08.815Z,1016.68
2022-08-29T06:19:08.722Z,1016.65
2022-08-29T06:20:08.713Z,1016.66
2022-08-29T06:21:08.679Z,1016.70
2022-08-29T06:22:09.868Z,1016.73
2022-08-29T06:23:08.632Z,1016.76
2022-08-29T06:24:08.611Z,1016.75
2022-08-29T06:25:35.002Z,1016.80
2022-08-29T06:26:08.569Z,1016.75
2022-08-29T06:27:08.548Z,1016.77
2022-08-29T06:28:08.564Z,1016.80
2022-08-29T06:29:08.505Z,1016.80
2022-08-29T06:30:08.485Z,1016.80
2022-08-29T06:31:08.519Z,1016.80
2022-08-29T06:32:08.441Z,1016.79
2022-08-29T06:33:08.421Z,1016.77
2022-08-29T06:34:08.397Z,1016.77
2022-08-29T06:35:08.377Z,1016.70
2022-08-29T06:36:08.353Z,1016.67
2022-08-29T06:37:08.323Z,1016.65
2022-08-29T06:38:13.276Z,1016.65
2022-08-29T06:39:08.288Z,1016.66
2022-08-29T06:40:08.312Z,1016.70
2022-08-29T06:41:08.239Z,1016.72
2022-08-29T06:42:08.217Z,1016.71
2022-08-29T06:43:08.195Z,1016.72
2022-08-29T06:44:08.182Z,1016.74
2022-08-29T06:45:08.162Z,1016.74
2022-08-29T06:46:08.166Z,1016.74
2022-08-29T06:47:08.110Z,1016.74
2022-08-29T06:48:08.130Z,1016.74
2022-08-29T06:49:08.070Z,1016.77
2022-08-29T06:50:08.049Z,1016.76
2022-08-29T06:51:08.027Z,1016.76
2022-08-29T06:52:08.006Z,1016.78
2022-08-29T06:53:27.077Z,1016.81
2022-08-29T06:54:07.965Z,1016.85
2022-08-29T06:55:07.940Z,1016.85
2022-08-29T06:56:11.213Z,1016.86
2022-08-29T06:57:07.897Z,1016.83
2022-08-29T06:58:07.921Z,1016.86
2022-08-29T06:59:07.856Z,1016.84
2022-08-29T07:00:21.650Z,1016.83
2022-08-29T07:01:07.862Z,1016.82
2022-08-29T07:02:07.829Z,1016.82
2022-08-29T07:03:07.967Z,1016.79
2022-08-29T07:04:07.748Z,1016.82
2022-08-29T07:05:07.729Z,1016.78
2022-08-29T07:06:07.713Z,1016.80
2022-08-29T07:07:07.686Z,1016.77
2022-08-29T07:08:07.672Z,1016.81
2022-08-29T07:09:07.646Z,1016.83
2022-08-29T07:10:07.646Z,1016.85
2022-08-29T07:11:07.605Z,1016.82
2022-08-29T07:12:07.589Z,1016.88
2022-08-29T07:13:07.658Z,1016.90
2022-08-29T07:14:07.542Z,1016.86
2022-08-29T07:15:07.519Z,1016.89
2022-08-29T07:16:07.560Z,1016.82
2022-08-29T07:17:07.479Z,1016.83
2022-08-29T07:18:07.459Z,1016.81
2022-08-29T07:19:07.435Z,1016.82
2022-08-29T07:20:07.420Z,1016.81
2022-08-29T07:21:07.398Z,1016.81
2022-08-29T07:22:07.375Z,1016.83
2022-08-29T07:23:08.114Z,1016.86
2022-08-29T07:24:07.346Z,1016.85
2022-08-29T07:25:07.313Z,1016.89
2022-08-29T07:26:07.295Z,1016.88
2022-08-29T07:27:07.275Z,1016.87
2022-08-29T07:28:07.255Z,1016.92
2022-08-29T07:29:07.236Z,1016.95
2022-08-29T07:30:07.208Z,1016.95
2022-08-29T07:31:07.235Z,1016.95
2022-08-29T07:32:07.169Z,1016.90
2022-08-29T07:33:07.159Z,1016.91
2022-08-29T07:34:07.131Z,1016.91
2022-08-29T07:35:10.410Z,1016.93
2022-08-29T07:36:07.095Z,1016.96
2022-08-29T07:37:07.071Z,1016.97
2022-08-29T07:38:07.047Z,1017.00
2022-08-29T07:39:07.025Z,1016.98
2022-08-29T07:40:07.055Z,1017.01
2022-08-29T07:41:06.986Z,1016.99
2022-08-29T07:42:06.965Z,1017.00
2022-08-29T07:43:06.946Z,1017.00
2022-08-29T07:44:06.916Z,1017.05
2022-08-29T07:45:06.901Z,1017.06
2022-08-29T07:46:06.878Z,1017.09
2022-08-29T07:47:06.862Z,1017.07
2022-08-29T07:48:13.402Z,1017.10
2022-08-29T07:49:06.819Z,1017.08
2022-08-29T07:50:06.798Z,1017.08
2022-08-29T07:51:10.358Z,1017.06
2022-08-29T07:52:06.763Z,1017.10
2022-08-29T07:53:06.738Z,1017.10
2022-08-29T07:54:06.722Z,1017.09
2022-08-29T07:55:06.693Z,1017.12
2022-08-29T07:56:06.671Z,1017.07
2022-08-29T07:57:06.650Z,1017.10
2022-08-29T07:58:06.635Z,1017.08
2022-08-29T07:59:06.618Z,1017.08
2022-08-29T08:00:06.600Z,1017.06
2022-08-29T08:01:06.833Z,1017.06
2022-08-29T08:02:06.708Z,1017.04
2022-08-29T08:03:06.538Z,1017.05
2022-08-29T08:04:06.513Z,1017.05
2022-08-29T08:05:06.751Z,1017.06
2022-08-29T08:06:07.090Z,1017.07
2022-08-29T08:07:06.456Z,1017.05
2022-08-29T08:08:09.070Z,1017.05
2022-08-29T08:09:06.411Z,1017.10
2022-08-29T08:10:06.398Z,1017.12
2022-08-29T08:11:06.374Z,1017.14
2022-08-29T08:12:08.426Z,1017.17
2022-08-29T08:13:06.330Z,1017.16
2022-08-29T08:14:06.311Z,1017.17
2022-08-29T08:15:06.288Z,1017.19
2022-08-29T08:16:06.269Z,1017.17
2022-08-29T08:17:06.314Z,1017.17
2022-08-29T08:18:06.235Z,1017.20
2022-08-29T08:19:06.217Z,1017.22
2022-08-29T08:20:06.192Z,1017.19
2022-08-29T08:21:06.178Z,1017.20
2022-08-29T08:22:06.154Z,1017.18
2022-08-29T08:23:08.996Z,1017.17
2022-08-29T08:24:06.119Z,1017.18
2022-08-29T08:25:06.098Z,1017.14
2022-08-29T08:26:06.073Z,1017.14
2022-08-29T08:27:06.050Z,1017.18
2022-08-29T08:28:06.034Z,1017.15
2022-08-29T08:29:06.008Z,1017.14
2022-08-29T08:30:05.990Z,1017.14
2022-08-29T08:31:06.667Z,1017.13
2022-08-29T08:32:05.957Z,1017.11
2022-08-29T08:33:05.937Z,1017.12
2022-08-29T08:34:05.918Z,1017.09
2022-08-29T08:35:05.899Z,1017.11
2022-08-29T08:36:05.875Z,1017.08
2022-08-29T08:37:05.858Z,1017.06
2022-08-29T08:38:05.841Z,1017.08
2022-08-29T08:39:05.816Z,1017.06
2022-08-29T08:40:05.833Z,1017.07
2022-08-29T08:41:06.729Z,1017.04
2022-08-29T08:42:05.758Z,1017.04
2022-08-29T08:43:05.742Z,1017.05
2022-08-29T08:44:05.721Z,1017.07
2022-08-29T08:45:05.708Z,1017.09
2022-08-29T08:46:05.748Z,1017.11
2022-08-29T08:47:05.658Z,1017.10
2022-08-29T08:48:05.645Z,1017.08
2022-08-29T08:49:05.619Z,1017.04
2022-08-29T08:50:05.600Z,1017.09
2022-08-29T08:51:05.581Z,1017.10
2022-08-29T08:52:05.560Z,1017.07
2022-08-29T08:53:05.543Z,1017.08
2022-08-29T08:54:05.523Z,1017.04
2022-08-29T08:55:05.511Z,1017.03
2022-08-29T08:56:05.477Z,1017.04
2022-08-29T08:57:05.467Z,1017.07
2022-08-29T08:58:05.439Z,1017.02
2022-08-29T08:59:05.419Z,1017.04
2022-08-29T09:00:05.400Z,1017.10
2022-08-29T09:01:05.422Z,1017.10
2022-08-29T09:02:06.797Z,1017.09
2022-08-29T09:03:05.342Z,1017.08
2022-08-29T09:04:05.322Z,1017.09
2022-08-29T09:05:05.304Z,1017.07
2022-08-29T09:06:05.287Z,1017.10
2022-08-29T09:07:05.262Z,1017.06
2022-08-29T09:08:05.241Z,1017.05
2022-08-29T09:09:05.224Z,1017.06
2022-08-29T09:10:05.201Z,1017.07
2022-08-29T09:11:05.182Z,1017.09
2022-08-29T09:12:05.165Z,1017.08
2022-08-29T09:13:05.148Z,1017.09
2022-08-29T09:14:05.122Z,1017.08
2022-08-29T09:15:05.108Z,1017.13
2022-08-29T09:16:05.084Z,1017.11
2022-08-29T09:17:05.065Z,1017.14
2022-08-29T09:18:05.043Z,1017.16
2022-08-29T09:19:05.026Z,1017.17
2022-08-29T09:20:06.856Z,1017.18
2022-08-29T09:21:10.106Z,1017.18
2022-08-29T09:22:04.974Z,1017.18
2022-08-29T09:23:04.945Z,1017.20
2022-08-29T09:24:04.926Z,1017.21
2022-08-29T09:25:04.906Z,1017.21
2022-08-29T09:26:04.885Z,1017.21
2022-08-29T09:27:04.867Z,1017.21
2022-08-29T09:28:04.856Z,1017.23
2022-08-29T09:29:04.827Z,1017.18
2022-08-29T09:30:04.807Z,1017.20
2022-08-29T09:31:04.787Z,1017.18
2022-08-29T09:32:04.818Z,1017.19
2022-08-29T09:33:04.751Z,1017.17
2022-08-29T09:34:04.725Z,1017.16
2022-08-29T09:35:08.950Z,1017.20
2022-08-29T09:36:04.693Z,1017.15
2022-08-29T09:37:04.671Z,1017.13
2022-08-29T09:38:04.645Z,1017.15
2022-08-29T09:39:04.630Z,1017.19
2022-08-29T09:40:04.639Z,1017.17
2022-08-29T09:41:04.589Z,1017.18
2022-08-29T09:42:04.573Z,1017.23
2022-08-29T09:43:04.555Z,1017.23
2022-08-29T09:44:04.528Z,1017.25
2022-08-29T09:45:04.508Z,1017.20
2022-08-29T09:46:04.508Z,1017.27
2022-08-29T09:47:04.473Z,1017.26
2022-08-29T09:48:04.451Z,1017.20
2022-08-29T09:49:04.435Z,1017.19
2022-08-29T09:50:04.411Z,1017.18
2022-08-29T09:51:04.393Z,1017.20
2022-08-29T09:52:04.371Z,1017.17
2022-08-29T09:53:05.803Z,1017.16
2022-08-29T09:54:04.333Z,1017.18
2022-08-29T09:55:04.317Z,1017.16
2022-08-29T09:56:04.292Z,1017.13
2022-08-29T09:57:04.280Z,1017.16
2022-08-29T09:58:04.255Z,1017.13
2022-08-29T09:59:04.239Z,1017.11
2022-08-29T10:00:06.768Z,1017.18
2022-08-29T10:01:04.534Z,1017.14
2022-08-29T10:02:04.219Z,1017.13
2022-08-29T10:03:04.158Z,1017.16
2022-08-29T10:04:04.136Z,1017.21
2022-08-29T10:05:04.119Z,1017.21
2022-08-29T10:06:04.101Z,1017.19
2022-08-29T10:07:04.091Z,1017.23
2022-08-29T10:08:04.065Z,1017.23
2022-08-29T10:09:04.050Z,1017.20
2022-08-29T10:10:04.024Z,1017.20
2022-08-29T10:11:04.004Z,1017.20
2022-08-29T10:12:03.981Z,1017.17
2022-08-29T10:13:03.964Z,1017.19
2022-08-29T10:14:03.950Z,1017.21
2022-08-29T10:15:03.925Z,1017.25
2022-08-29T10:16:03.970Z,1017.19
2022-08-29T10:17:03.980Z,1017.19
2022-08-29T10:18:03.866Z,1017.21
2022-08-29T10:19:03.850Z,1017.23
2022-08-29T10:20:03.831Z,1017.22
2022-08-29T10:21:03.812Z,1017.16
2022-08-29T10:22:03.793Z,1017.19
2022-08-29T10:23:03.782Z,1017.18
2022-08-29T10:24:03.761Z,1017.18
2022-08-29T10:25:03.736Z,1017.19
2022-08-29T10:26:03.914Z,1017.19
2022-08-29T10:27:03.801Z,1017.20
2022-08-29T10:28:03.679Z,1017.14
2022-08-29T10:29:03.668Z,1017.13
2022-08-29T10:30:03.649Z,1017.12
2022-08-29T10:31:03.626Z,1017.16
2022-08-29T10:32:03.772Z,1017.10
2022-08-29T10:33:03.579Z,1017.06
2022-08-29T10:34:03.561Z,1017.08
2022-08-29T10:35:03.545Z,1017.06
2022-08-29T10:36:03.527Z,1017.02
2022-08-29T10:37:03.506Z,1017.04
2022-08-29T10:38:03.485Z,1017.07
2022-08-29T10:39:03.471Z,1017.09
2022-08-29T10:40:03.549Z,1017.03
2022-08-29T10:41:03.432Z,1017.05
2022-08-29T10:42:03.412Z,1017.03
2022-08-29T10:43:03.392Z,1017.03
2022-08-29T10:44:03.438Z,1017.03
2022-08-29T10:45:03.355Z,1017.02
2022-08-29T10:46:03.439Z,1017.05
2022-08-29T10:47:03.313Z,1017.01
2022-08-29T10:48:03.302Z,1017.01
2022-08-29T10:49:03.282Z,1017.00
2022-08-29T10:50:03.258Z,1017.01
2022-08-29T10:51:03.239Z,1017.02
2022-08-29T10:52:03.223Z,1016.98
2022-08-29T10:53:03.200Z,1016.96
2022-08-29T10:54:03.184Z,1016.92
2022-08-29T10:55:03.174Z,1016.95
2022-08-29T10:56:06.625Z,1016.96
2022-08-29T10:57:03.125Z,1016.96
2022-08-29T10:58:03.107Z,1017.01
2022-08-29T10:59:03.098Z,1016.98
2022-08-29T11:00:03.073Z,1017.00
2022-08-29T11:01:06.911Z,1016.96
2022-08-29T11:02:03.036Z,1016.94
2022-08-29T11:03:03.019Z,1016.93
2022-08-29T11:04:03.070Z,1016.90
2022-08-29T11:05:03.039Z,1016.93
2022-08-29T11:06:02.961Z,1016.91
2022-08-29T11:07:02.945Z,1016.93
2022-08-29T11:08:02.925Z,1016.92
2022-08-29T11:09:02.917Z,1016.88
2022-08-29T11:10:02.886Z,1016.86
2022-08-29T11:11:02.868Z,1016.85
2022-08-29T11:12:02.851Z,1016.81
2022-08-29T11:13:02.834Z,1016.83
2022-08-29T11:14:05.849Z,1016.82
2022-08-29T11:15:02.803Z,1016.83
2022-08-29T11:16:02.825Z,1016.83
2022-08-29T11:17:03.185Z,1016.85
2022-08-29T11:18:02.737Z,1016.85
2022-08-29T11:19:02.721Z,1016.84
2022-08-29T11:20:02.741Z,1016.86
2022-08-29T11:21:02.683Z,1016.83
2022-08-29T11:22:02.668Z,1016.84
2022-08-29T11:23:02.645Z,1016.86
2022-08-29T11:24:02.626Z,1016.83
2022-08-29T11:25:02.606Z,1016.87
2022-08-29T11:26:02.592Z,1016.85
2022-08-29T11:27:02.569Z,1016.86
2022-08-29T11:28:02.551Z,1016.86
2022-08-29T11:29:02.546Z,1016.83
2022-08-29T11:30:02.527Z,1016.80
2022-08-29T11:31:02.567Z,1016.78
2022-08-29T11:32:02.513Z,1016.74
2022-08-29T11:33:02.473Z,1016.73
2022-08-29T11:34:02.464Z,1016.75
2022-08-29T11:35:02.423Z,1016.71
2022-08-29T11:36:05.051Z,1016.73
2022-08-29T11:37:02.386Z,1016.68
2022-08-29T11:38:02.366Z,1016.69
2022-08-29T11:39:02.349Z,1016.68
2022-08-29T11:40:02.370Z,1016.66
2022-08-29T11:42:02.437Z,1016.64
2022-08-29T11:43:02.273Z,1016.68
2022-08-29T11:44:02.254Z,1016.68
2022-08-29T11:45:02.237Z,1016.64
2022-08-29T11:46:02.217Z,1016.60
2022-08-29T11:47:02.305Z,1016.61
2022-08-29T11:48:02.181Z,1016.61
2022-08-29T11:49:02.170Z,1016.63
2022-08-29T11:50:02.143Z,1016.61
2022-08-29T11:51:02.136Z,1016.61
2022-08-29T11:52:02.209Z,1016.62
2022-08-29T11:53:02.096Z,1016.59
2022-08-29T11:54:02.070Z,1016.58
2022-08-29T11:55:02.094Z,1016.58
2022-08-29T11:56:02.033Z,1016.57
2022-08-29T11:57:02.020Z,1016.60
2022-08-29T11:58:05.747Z,1016.60
2022-08-29T11:59:01.988Z,1016.63
2022-08-29T12:00:01.965Z,1016.62
2022-08-29T12:01:01.943Z,1016.65
2022-08-29T12:02:02.041Z,1016.69
2022-08-29T12:03:04.360Z,1016.69
2022-08-29T12:04:01.894Z,1016.68
2022-08-29T12:05:01.875Z,1016.64
2022-08-29T12:06:01.851Z,1016.59